Time;durP1;ratioP1;P1;durP2;ratioP2;P2;SDS_P1;SDS_P2;PMS_P1;PMS_P2;Temp;Humidity;BMP_temperature;BMP_pressure;BME280_temperature;BME280_humidity;BME280_pressure;Samples;Min_cycle;Max_cycle;Signal;HPM_P1;HPM_P2
2021/09/24 00:01:40;;;;;;;;;;;;;;;;;;5050830;28;20022;-63
2021/09/24 00:04:07;;;;;;;;;;;;;;;;;;5048723;28;20117;-62
2021/09/24 00:06:34;;;;;;;;;;;;;;;;;;5053886;28;20029;-63
2021/09/24 00:09:01;;;;;;;;;;;;;;;;;;5038796;28;20006;-62
2021/09/24 00:11:27;;;;;;;;;;;;;;;;;;5041273;28;20001;-63
2021/09/24 00:13:54;;;;;;;;;;;;;;;;;;5048742;28;20025;-62
2021/09/24 00:16:21;;;;;;;;;;;;;;;;;;5036267;28;20017;-63
2021/09/24 00:18:48;;;;;;;;;;;;;;;;;;5048418;28;20002;-62
2021/09/24 00:21:15;;;;;;;;;;;;;;;;;;5043928;28;20018;-62
2021/09/24 00:23:42;;;;;;;;;;;;;;;;;;5042247;28;20370;-62
2021/09/24 00:26:09;;;;;;;;;;;;;;;;;;5033319;28;20022;-62
2021/09/24 00:28:36;;;;;;;;;;;;;;;;;;5042223;28;20008;-62
2021/09/24 00:31:03;;;;;;;;;;;;;;;;;;5050754;28;20465;-62
2021/09/24 00:33:30;;;;;;;;;;;;;;;;;;5049270;28;20006;-62
2021/09/24 00:35:57;;;;;;;;;;;;;;;;;;5053760;28;20136;-62
2021/09/24 00:38:23;;;;;;;;;;;;;;;;;;5053131;28;20472;-62
2021/09/24 00:40:50;;;;;;;;;;;;;;;;;;5038016;28;20006;-62
2021/09/24 00:43:17;;;;;;;;;;;;;;;;;;5043777;28;20022;-62
2021/09/24 00:45:44;;;;;;;;;;;;;;;;;;5035831;28;20469;-63
2021/09/24 00:48:11;;;;;;;;;;;;;;;;;;5050727;28;20016;-62
2021/09/24 00:50:38;;;;;;;;;;;;;;;;;;5051451;28;20012;-62
2021/09/24 00:53:05;;;;;;;;;;;;;;;;;;5048971;28;20469;-62
2021/09/24 00:55:32;;;;;;;;;;;;;;;;;;5051443;28;20017;-62
2021/09/24 00:57:59;;;;;;;;;;;;;;;;;;5036300;28;20021;-62
2021/09/24 01:00:26;;;;;;;;;;;;;;;;;;5034912;28;20400;-62
2021/09/24 01:02:53;;;;;;;;;;;;;;;;;;5050576;28;20017;-62
2021/09/24 01:05:20;;;;;;;;;;;;;;;;;;5052052;28;20036;-62
2021/09/24 01:07:46;;;;;;;;;;;;;;;;;;5053067;28;20006;-62
2021/09/24 01:10:13;;;;;;;;;;;;;;;;;;5051173;28;20005;-63
2021/09/24 01:12:40;;;;;;;;;;;;;;;;;;5053846;28;20016;-63
2021/09/24 01:15:07;;;;;;;;;;;;;;;;;;5033705;28;20044;-62
2021/09/24 01:17:34;;;;;;;;;;;;;;;;;;5052154;28;20001;-63
2021/09/24 01:20:01;;;;;;;;;;;;;;;;;;5050517;28;20006;-62
2021/09/24 01:22:28;;;;;;;;;;;;;;;;;;5046682;28;20018;-62
2021/09/24 01:24:55;;;;;;;;;;;;;;;;;;5049153;28;20025;-62
2021/09/24 01:27:22;;;;;;;;;;;;;;;;;;5051162;28;20002;-65
2021/09/24 01:29:49;;;;;;;;;;;;;;;;;;5037847;28;20023;-63
2021/09/24 01:32:16;;;;;;;;;;;;;;;;;;5050932;28;20006;-63
2021/09/24 01:34:42;;;;;;;;;;;;;;;;;;5052039;28;20009;-63
2021/09/24 01:37:09;;;;;;;;;;;;;;;;;;5050924;28;20376;-63
2021/09/24 01:39:36;;;;;;;;;;;;;;;;;;5051188;28;20001;-63
2021/09/24 01:42:03;;;;;;;;;;;;;;;;;;5052567;28;20021;-63
2021/09/24 01:44:30;;;;;;;;;;;;;;;;;;5049278;28;20033;-62
2021/09/24 01:46:57;;;;;;;;;;;;;;;;;;5043957;28;20480;-63
2021/09/24 01:49:24;;;;;;;;;;;;;;;;;;5042510;28;20006;-63
2021/09/24 01:51:51;;;;;;;;;;;;;;;;;;5033023;28;20010;-63
2021/09/24 01:54:18;;;;;;;;;;;;;;;;;;5044322;28;20006;-63
2021/09/24 01:56:46;;;;;;;;;;;;;;;;;;5046032;28;20022;-63
2021/09/24 01:59:13;;;;;;;;;;;;;;;;;;5034123;28;20080;-63
2021/09/24 02:01:40;;;;;;;;;;;;;;;;;;5042764;28;20002;-63
2021/09/24 02:04:06;;;;;;;;;;;;;;;;;;5044274;28;20005;-63
2021/09/24 02:06:33;;;;;;;;;;;;;;;;;;5045515;28;20022;-63
2021/09/24 02:09:00;;;;;;;;;;;;;;;;;;5049016;28;20002;-63
2021/09/24 02:11:27;;;;;;;;;;;;;;;;;;5044725;28;20016;-63
2021/09/24 02:13:54;;;;;;;;;;;;;;;;;;5056450;28;20002;-62
2021/09/24 02:16:21;;;;;;;;;;;;;;;;;;5069865;28;20002;-66
2021/09/24 02:18:48;;;;;;;;;;;;;;;;;;5075073;28;20069;-62
2021/09/24 02:21:15;;;;;;;;;;;;;;;;;;5074935;28;20005;-63
2021/09/24 02:23:42;;;;;;;;;;;;;;;;;;5055151;28;20028;-62
2021/09/24 02:26:09;;;;;;;;;;;;;;;;;;5054666;28;20673;-64
2021/09/24 02:28:36;;;;;;;;;;;;;;;;;;5053170;28;20002;-63
2021/09/24 02:31:08;;;;;;;;;;;;;;;;;;5046883;28;20012;-62
2021/09/24 02:33:35;;;;;;;;;;;;;;;;;;5042884;28;20010;-64
2021/09/24 02:36:02;;;;;;;;;;;;;;;;;;5056191;28;20065;-62
2021/09/24 02:38:29;;;;;;;;;;;;;;;;;;5052979;28;20583;-62
2021/09/24 02:40:56;;;;;;;;;;;;;;;;;;5055702;28;20012;-62
2021/09/24 02:43:23;;;;;;;;;;;;;;;;;;5066874;28;19997;-62
2021/09/24 02:45:50;;;;;;;;;;;;;;;;;;5074457;28;20512;-64
2021/09/24 02:48:17;;;;;;;;;;;;;;;;;;5077175;28;20012;-67
2021/09/24 02:50:43;;;;;;;;;;;;;;;;;;5077221;28;20005;-66
2021/09/24 02:53:10;;;;;;;;;;;;;;;;;;5071890;28;20009;-63
2021/09/24 02:55:37;;;;;;;;;;;;;;;;;;5076420;28;20032;-65
2021/09/24 02:58:04;;;;;;;;;;;;;;;;;;5043098;28;20006;-63
2021/09/24 03:00:31;;;;;;;;;;;;;;;;;;5048273;28;20009;-63
2021/09/24 03:02:58;;;;;;;;;;;;;;;;;;5045719;28;20021;-63
2021/09/24 03:05:25;;;;;;;;;;;;;;;;;;4987462;28;1793733;-63
2021/09/24 03:07:52;;;;;;;;;;;;;;;;;;5045910;28;20009;-63
2021/09/24 03:10:19;;;;;;;;;;;;;;;;;;5043175;28;20005;-63
2021/09/24 03:12:46;;;;;;;;;;;;;;;;;;5052126;28;20021;-63
2021/09/24 03:15:13;;;;;;;;;;;;;;;;;;5038044;28;20028;-64
2021/09/24 03:17:39;;;;;;;;;;;;;;;;;;5050560;28;20002;-63
2021/09/24 03:20:06;;;;;;;;;;;;;;;;;;5036449;28;20470;-63
2021/09/24 03:22:33;;;;;;;;;;;;;;;;;;5053878;28;20024;-63
2021/09/24 03:25:00;;;;;;;;;;;;;;;;;;5056412;28;20022;-62
2021/09/24 03:27:27;;;;;;;;;;;;;;;;;;5048846;28;20366;-63
2021/09/24 03:29:54;;;;;;;;;;;;;;;;;;5038133;28;20001;-63
2021/09/24 03:32:21;;;;;;;;;;;;;;;;;;5053168;28;20005;-63
2021/09/24 03:34:48;;;;;;;;;;;;;;;;;;5048984;28;20705;-62
2021/09/24 03:37:15;;;;;;;;;;;;;;;;;;5040851;28;20009;-63
2021/09/24 03:39:42;;;;;;;;;;;;;;;;;;5040836;28;20005;-63
2021/09/24 03:42:09;;;;;;;;;;;;;;;;;;5053484;28;20020;-63
2021/09/24 03:44:35;;;;;;;;;;;;;;;;;;5049288;28;20009;-63
2021/09/24 03:47:02;;;;;;;;;;;;;;;;;;5052721;28;20001;-63
2021/09/24 03:49:29;;;;;;;;;;;;;;;;;;5053752;28;20016;-63
2021/09/24 03:51:57;;;;;;;;;;;;;;;;;;5053252;28;20012;-63
2021/09/24 03:54:24;;;;;;;;;;;;;;;;;;5048840;28;20012;-63
2021/09/24 03:56:51;;;;;;;;;;;;;;;;;;5052082;28;20504;-63
2021/09/24 03:59:18;;;;;;;;;;;;;;;;;;5053472;28;20002;-63
2021/09/24 04:01:44;;;;;;;;;;;;;;;;;;5045761;28;20013;-63
2021/09/24 04:04:11;;;;;;;;;;;;;;;;;;5039904;28;20484;-63
2021/09/24 04:06:38;;;;;;;;;;;;;;;;;;5052317;28;20022;-63
2021/09/24 04:09:05;;;;;;;;;;;;;;;;;;5034717;28;20010;-63
2021/09/24 04:11:32;;;;;;;;;;;;;;;;;;5042288;28;20002;-63
2021/09/24 04:13:59;;;;;;;;;;;;;;;;;;5053681;28;20010;-63
2021/09/24 04:16:26;;;;;;;;;;;;;;;;;;5052722;28;20040;-63
2021/09/24 04:18:53;;;;;;;;;;;;;;;;;;5053033;28;20005;-63
2021/09/24 04:21:20;;;;;;;;;;;;;;;;;;5045007;28;20009;-64
2021/09/24 04:23:47;;;;;;;;;;;;;;;;;;5033441;28;20022;-63
2021/09/24 04:26:14;;;;;;;;;;;;;;;;;;5040518;28;20025;-63
2021/09/24 04:28:41;;;;;;;;;;;;;;;;;;5038773;28;20001;-63
2021/09/24 04:31:08;;;;;;;;;;;;;;;;;;5038095;28;20006;-63
2021/09/24 04:33:35;;;;;;;;;;;;;;;;;;5044386;28;20016;-63
2021/09/24 04:36:02;;;;;;;;;;;;;;;;;;5051297;28;20026;-63
2021/09/24 04:38:29;;;;;;;;;;;;;;;;;;5052252;28;20006;-63
2021/09/24 04:40:56;;;;;;;;;;;;;;;;;;5053063;28;20009;-63
2021/09/24 04:43:23;;;;;;;;;;;;;;;;;;5052685;28;20104;-63
2021/09/24 04:45:50;;;;;;;;;;;;;;;;;;5048035;28;20048;-63
2021/09/24 04:48:17;;;;;;;;;;;;;;;;;;5047991;28;20001;-63
2021/09/24 04:50:43;;;;;;;;;;;;;;;;;;5038744;28;20006;-63
2021/09/24 04:53:10;;;;;;;;;;;;;;;;;;5047142;28;20024;-63
2021/09/24 04:55:37;;;;;;;;;;;;;;;;;;5052263;28;20028;-63
2021/09/24 04:58:04;;;;;;;;;;;;;;;;;;5051850;28;20006;-63
2021/09/24 05:00:31;;;;;;;;;;;;;;;;;;5046034;28;20002;-63
2021/09/24 05:02:58;;;;;;;;;;;;;;;;;;5052339;28;20025;-63
2021/09/24 05:05:25;;;;;;;;;;;;;;;;;;5050393;28;20029;-63
2021/09/24 05:07:52;;;;;;;;;;;;;;;;;;5051772;28;20005;-63
2021/09/24 05:10:19;;;;;;;;;;;;;;;;;;5051469;28;20017;-63
2021/09/24 05:12:46;;;;;;;;;;;;;;;;;;5047026;28;20016;-63
2021/09/24 05:15:13;;;;;;;;;;;;;;;;;;5035603;28;20388;-63
2021/09/24 05:17:39;;;;;;;;;;;;;;;;;;5044350;28;20001;-63
2021/09/24 05:20:06;;;;;;;;;;;;;;;;;;5051204;28;20013;-64
2021/09/24 05:22:33;;;;;;;;;;;;;;;;;;5047680;28;20354;-64
2021/09/24 05:25:01;;;;;;;;;;;;;;;;;;5042866;28;20026;-64
2021/09/24 05:27:27;;;;;;;;;;;;;;;;;;5049446;28;20010;-63
2021/09/24 05:29:54;;;;;;;;;;;;;;;;;;5044284;28;20013;-64
2021/09/24 05:32:21;;;;;;;;;;;;;;;;;;5051628;28;20016;-63
2021/09/24 05:34:48;;;;;;;;;;;;;;;;;;5047116;28;20009;-63
2021/09/24 05:37:15;;;;;;;;;;;;;;;;;;5048223;28;20005;-62
2021/09/24 05:39:43;;;;;;;;;;;;;;;;;;5042418;28;20033;-63
2021/09/24 05:42:09;;;;;;;;;;;;;;;;;;5049276;28;20012;-65
2021/09/24 05:44:36;;;;;;;;;;;;;;;;;;5049196;28;20021;-63
2021/09/24 05:47:03;;;;;;;;;;;;;;;;;;5046117;28;20349;-63
2021/09/24 05:49:31;;;;;;;;;;;;;;;;;;5036041;28;20013;-63
2021/09/24 05:51:58;;;;;;;;;;;;;;;;;;5046617;28;20006;-63
2021/09/24 05:54:24;;;;;;;;;;;;;;;;;;5040725;28;20469;-66
2021/09/24 05:56:51;;;;;;;;;;;;;;;;;;5041889;28;20029;-64
2021/09/24 05:59:18;;;;;;;;;;;;;;;;;;5043184;28;20014;-64
2021/09/24 06:01:48;;;;;;;;;;;;;;;;;;5056622;28;20016;-63
2021/09/24 06:04:15;;;;;;;;;;;;;;;;;;5056869;28;20044;-63
2021/09/24 06:06:41;;;;;;;;;;;;;;;;;;5052313;28;20075;-63
2021/09/24 06:09:08;;;;;;;;;;;;;;;;;;5056658;28;20001;-63
2021/09/24 06:11:35;;;;;;;;;;;;;;;;;;5056620;28;20465;-65
2021/09/24 06:14:02;;;;;;;;;;;;;;;;;;5045176;28;20002;-65
2021/09/24 06:16:29;;;;;;;;;;;;;;;;;;5054484;28;20385;-65
2021/09/24 06:18:56;;;;;;;;;;;;;;;;;;5055638;28;20001;-65
2021/09/24 06:21:23;;;;;;;;;;;;;;;;;;5053497;28;20010;-65
2021/09/24 06:23:50;;;;;;;;;;;;;;;;;;5047234;28;20512;-65
2021/09/24 06:26:17;;;;;;;;;;;;;;;;;;5050410;28;20018;-66
2021/09/24 06:28:44;;;;;;;;;;;;;;;;;;5047575;28;20029;-66
2021/09/24 06:31:11;;;;;;;;;;;;;;;;;;5052015;28;20488;-66
2021/09/24 06:33:38;;;;;;;;;;;;;;;;;;5055392;28;20008;-65
2021/09/24 06:36:05;;;;;;;;;;;;;;;;;;5054563;28;20021;-66
2021/09/24 06:38:32;;;;;;;;;;;;;;;;;;5050851;28;20020;-66
2021/09/24 06:40:59;;;;;;;;;;;;;;;;;;5036229;28;20552;-65
2021/09/24 06:43:25;;;;;;;;;;;;;;;;;;5037583;28;20025;-65
2021/09/24 06:45:52;;;;;;;;;;;;;;;;;;5049227;28;20029;-66
2021/09/24 06:48:19;;;;;;;;;;;;;;;;;;5054124;28;20465;-66
2021/09/24 06:50:46;;;;;;;;;;;;;;;;;;5054578;28;20005;-65
2021/09/24 06:53:13;;;;;;;;;;;;;;;;;;5055574;28;20017;-64
2021/09/24 06:55:40;;;;;;;;;;;;;;;;;;5054104;28;20021;-65
2021/09/24 06:58:07;;;;;;;;;;;;;;;;;;5055042;28;20002;-65
2021/09/24 07:00:34;;;;;;;;;;;;;;;;;;5052591;28;20014;-65
2021/09/24 07:03:01;;;;;;;;;;;;;;;;;;5046418;28;20016;-66
2021/09/24 07:05:28;;;;;;;;;;;;;;;;;;5040703;28;20408;-69
2021/09/24 07:07:55;;;;;;;;;;;;;;;;;;5054461;28;20040;-70
2021/09/24 07:10:22;;;;;;;;;;;;;;;;;;5055555;28;20017;-68
2021/09/24 07:12:49;;;;;;;;;;;;;;;;;;5047843;28;20002;-70
2021/09/24 07:15:16;;;;;;;;;;;;;;;;;;5054690;28;20105;-69
2021/09/24 07:17:42;;;;;;;;;;;;;;;;;;5055134;28;20020;-69
2021/09/24 07:20:09;;;;;;;;;;;;;;;;;;5054687;28;20009;-69
2021/09/24 07:22:36;;;;;;;;;;;;;;;;;;5052193;28;20449;-68
2021/09/24 07:25:03;;;;;;;;;;;;;;;;;;5034835;28;20040;-68
2021/09/24 07:27:30;;;;;;;;;;;;;;;;;;5054159;28;20006;-68
2021/09/24 07:29:57;;;;;;;;;;;;;;;;;;5054818;28;20484;-69
2021/09/24 07:32:24;;;;;;;;;;;;;;;;;;5043645;28;20013;-69
2021/09/24 07:34:51;;;;;;;;;;;;;;;;;;5053472;28;20025;-69
2021/09/24 07:37:18;;;;;;;;;;;;;;;;;;5053968;28;20009;-69
2021/09/24 07:39:45;;;;;;;;;;;;;;;;;;5054762;28;20016;-68
2021/09/24 07:42:12;;;;;;;;;;;;;;;;;;5054123;28;20012;-69
2021/09/24 07:44:38;;;;;;;;;;;;;;;;;;5053994;28;20493;-66
2021/09/24 07:47:07;;;;;;;;;;;;;;;;;;5051009;28;20006;-67
2021/09/24 07:49:34;;;;;;;;;;;;;;;;;;5034206;28;20474;-68
2021/09/24 07:52:01;;;;;;;;;;;;;;;;;;5049549;28;20012;-67
2021/09/24 07:54:28;;;;;;;;;;;;;;;;;;5054191;28;20009;-68
2021/09/24 07:56:54;;;;;;;;;;;;;;;;;;5039986;28;20569;-68
2021/09/24 07:59:21;;;;;;;;;;;;;;;;;;5042734;28;20006;-68
2021/09/24 08:01:48;;;;;;;;;;;;;;;;;;5053143;28;20009;-68
2021/09/24 08:04:15;;;;;;;;;;;;;;;;;;5051564;28;20018;-68
2021/09/24 08:06:42;;;;;;;;;;;;;;;;;;5042136;28;20404;-68
2021/09/24 08:09:09;;;;;;;;;;;;;;;;;;5050366;28;20005;-67
2021/09/24 08:11:36;;;;;;;;;;;;;;;;;;5040821;28;20013;-69
2021/09/24 08:14:03;;;;;;;;;;;;;;;;;;5047046;28;20005;-67
2021/09/24 08:16:30;;;;;;;;;;;;;;;;;;5046759;28;20586;-67
2021/09/24 08:18:57;;;;;;;;;;;;;;;;;;5033907;28;20014;-67
2021/09/24 08:21:24;;;;;;;;;;;;;;;;;;5040473;28;20013;-68
2021/09/24 08:23:53;;;;;;;;;;;;;;;;;;5052321;28;20400;-68
2021/09/24 08:26:20;;;;;;;;;;;;;;;;;;5052715;28;20374;-68
2021/09/24 08:28:47;;;;;;;;;;;;;;;;;;5054127;28;20012;-68
2021/09/24 08:31:14;;;;;;;;;;;;;;;;;;5052141;28;20005;-68
2021/09/24 08:33:41;;;;;;;;;;;;;;;;;;5048905;28;20001;-68
2021/09/24 08:36:08;;;;;;;;;;;;;;;;;;5053368;28;20026;-68
2021/09/24 08:38:35;;;;;;;;;;;;;;;;;;5045870;28;20006;-69
2021/09/24 08:41:02;;;;;;;;;;;;;;;;;;5037363;28;20361;-69
2021/09/24 08:43:29;;;;;;;;;;;;;;;;;;5046248;28;20008;-68
2021/09/24 08:45:56;;;;;;;;;;;;;;;;;;5037211;28;20417;-68
2021/09/24 08:48:23;;;;;;;;;;;;;;;;;;5048902;28;20014;-68
2021/09/24 08:50:51;;;;;;;;;;;;;;;;;;5051831;28;20013;-65
2021/09/24 08:53:19;;;;;;;;;;;;;;;;;;5052729;28;20006;-65
2021/09/24 08:55:46;;;;;;;;;;;;;;;;;;5052429;28;20021;-65
2021/09/24 08:58:13;;;;;;;;;;;;;;;;;;5052297;28;20006;-65
2021/09/24 09:00:42;;;;;;;;;;;;;;;;;;5052429;28;20417;-65
2021/09/24 09:03:10;;;;;;;;;;;;;;;;;;5053280;28;20428;-65
2021/09/24 09:05:37;;;;;;;;;;;;;;;;;;5052614;28;20036;-65
2021/09/24 09:08:04;;;;;;;;;;;;;;;;;;5052283;28;20006;-65
2021/09/24 09:10:31;;;;;;;;;;;;;;;;;;5045891;28;20507;-64
2021/09/24 09:12:58;;;;;;;;;;;;;;;;;;5051615;28;20012;-65
2021/09/24 09:15:25;;;;;;;;;;;;;;;;;;5052020;28;20025;-66
2021/09/24 09:17:52;;;;;;;;;;;;;;;;;;5052584;28;20366;-65
2021/09/24 09:20:19;;;;;;;;;;;;;;;;;;5052260;28;20475;-66
2021/09/24 09:22:46;;;;;;;;;;;;;;;;;;5053072;28;20012;-66
2021/09/24 09:25:13;;;;;;;;;;;;;;;;;;5034006;28;20029;-65
2021/09/24 09:27:39;;;;;;;;;;;;;;;;;;5037871;28;20002;-65
2021/09/24 09:30:11;;;;;;;;;;;;;;;;;;5052755;28;20010;-65
2021/09/24 09:32:38;;;;;;;;;;;;;;;;;;5052855;28;20373;-66
2021/09/24 09:35:05;;;;;;;;;;;;;;;;;;5054228;28;20025;-66
2021/09/24 09:37:31;;;;;;;;;;;;;;;;;;5049389;28;20013;-66
2021/09/24 09:39:58;;;;;;;;;;;;;;;;;;5032902;28;20361;-66
2021/09/24 09:42:25;;;;;;;;;;;;;;;;;;5032984;28;20010;-67
2021/09/24 09:44:52;;;;;;;;;;;;;;;;;;5032834;28;20041;-66
2021/09/24 09:47:19;;;;;;;;;;;;;;;;;;5034700;28;20458;-65
2021/09/24 09:49:51;;;;;;;;;;;;;;;;;;5052828;28;20009;-65
2021/09/24 09:52:17;;;;;;;;;;;;;;;;;;5052774;28;20032;-66
2021/09/24 09:54:44;;;;;;;;;;;;;;;;;;5052366;28;20460;-66
2021/09/24 09:57:11;;;;;;;;;;;;;;;;;;5052196;28;20230;-65
2021/09/24 09:59:38;;;;;;;;;;;;;;;;;;5052845;28;20009;-65
2021/09/24 10:02:05;;;;;;;;;;;;;;;;;;5052896;28;20468;-65
2021/09/24 10:04:32;;;;;;;;;;;;;;;;;;5052390;28;20032;-66
2021/09/24 10:06:59;;;;;;;;;;;;;;;;;;5052372;28;20009;-66
2021/09/24 10:09:28;;;;;;;;;;;;;;;;;;5044667;28;20005;-66
2021/09/24 10:11:55;;;;;;;;;;;;;;;;;;5042825;28;20381;-66
2021/09/24 10:14:22;;;;;;;;;;;;;;;;;;5032924;28;20014;-67
2021/09/24 10:16:50;;;;;;;;;;;;;;;;;;5033112;28;20026;-66
2021/09/24 10:19:17;;;;;;;;;;;;;;;;;;5033115;28;20017;-66
2021/09/24 10:21:43;;;;;;;;;;;;;;;;;;5039978;28;20005;-65
2021/09/24 10:24:10;;;;;;;;;;;;;;;;;;5061486;28;20028;-65
2021/09/24 10:26:37;;;;;;;;;;;;;;;;;;5052230;28;20049;-66
2021/09/24 10:29:04;;;;;;;;;;;;;;;;;;5052021;28;20010;-66
2021/09/24 10:31:31;;;;;;;;;;;;;;;;;;5051843;28;20005;-66
2021/09/24 10:34:02;;;;;;;;;;;;;;;;;;5052084;28;20127;-67
2021/09/24 10:36:28;;;;;;;;;;;;;;;;;;5051984;28;20029;-66
2021/09/24 10:38:55;;;;;;;;;;;;;;;;;;5052365;28;20397;-66
2021/09/24 10:41:22;;;;;;;;;;;;;;;;;;5052719;28;20018;-66
2021/09/24 10:43:49;;;;;;;;;;;;;;;;;;5032908;28;20005;-67
2021/09/24 10:46:16;;;;;;;;;;;;;;;;;;5033503;28;20392;-66
2021/09/24 10:48:43;;;;;;;;;;;;;;;;;;5035413;28;20021;-67
2021/09/24 10:51:10;;;;;;;;;;;;;;;;;;5035867;28;20010;-66
2021/09/24 10:53:39;;;;;;;;;;;;;;;;;;5049345;28;20481;-67
2021/09/24 10:56:06;;;;;;;;;;;;;;;;;;5056124;28;20078;-67
2021/09/24 10:58:32;;;;;;;;;;;;;;;;;;5056994;28;20431;-67
2021/09/24 11:00:59;;;;;;;;;;;;;;;;;;5057919;28;20462;-67
2021/09/24 11:03:26;;;;;;;;;;;;;;;;;;5054843;28;20013;-67
2021/09/24 11:05:53;;;;;;;;;;;;;;;;;;5055055;28;20029;-67
2021/09/24 11:08:20;;;;;;;;;;;;;;;;;;5055180;28;20017;-67
2021/09/24 11:10:47;;;;;;;;;;;;;;;;;;5055148;28;20512;-66
2021/09/24 11:13:14;;;;;;;;;;;;;;;;;;5055374;28;20016;-66
2021/09/24 11:15:41;;;;;;;;;;;;;;;;;;5054738;28;20070;-67
2021/09/24 11:18:08;;;;;;;;;;;;;;;;;;5053620;28;20032;-67
2021/09/24 11:20:36;;;;;;;;;;;;;;;;;;5037810;28;20006;-67
2021/09/24 11:23:03;;;;;;;;;;;;;;;;;;5055454;28;20014;-67
2021/09/24 11:25:29;;;;;;;;;;;;;;;;;;5055430;28;20539;-67
2021/09/24 11:27:58;;;;;;;;;;;;;;;;;;5056864;28;20013;-66
2021/09/24 11:30:25;;;;;;;;;;;;;;;;;;5056019;28;20384;-67
2021/09/24 11:32:52;;;;;;;;;;;;;;;;;;5056576;28;20009;-67
2021/09/24 11:35:19;;;;;;;;;;;;;;;;;;5055729;28;20026;-67
2021/09/24 11:37:47;;;;;;;;;;;;;;;;;;5049764;28;20017;-67
2021/09/24 11:40:14;;;;;;;;;;;;;;;;;;5054806;28;20010;-67
2021/09/24 11:42:41;;;;;;;;;;;;;;;;;;5054422;28;20020;-67
2021/09/24 11:45:08;;;;;;;;;;;;;;;;;;5053177;28;20036;-67
2021/09/24 11:47:36;;;;;;;;;;;;;;;;;;5049354;28;20010;-67
2021/09/24 11:50:03;;;;;;;;;;;;;;;;;;5037426;28;20036;-67
2021/09/24 11:52:30;;;;;;;;;;;;;;;;;;5054640;28;20009;-66
2021/09/24 11:54:57;;;;;;;;;;;;;;;;;;5055914;28;20029;-67
2021/09/24 11:57:24;;;;;;;;;;;;;;;;;;5055107;28;20340;-66
2021/09/24 11:59:51;;;;;;;;;;;;;;;;;;5056591;28;20010;-67
2021/09/24 12:02:18;;;;;;;;;;;;;;;;;;5056848;28;20017;-66
2021/09/24 12:04:45;;;;;;;;;;;;;;;;;;5056312;28;20028;-67
2021/09/24 12:07:12;;;;;;;;;;;;;;;;;;5062425;28;20009;-68
2021/09/24 12:09:39;;;;;;;;;;;;;;;;;;5071650;28;20009;-67
2021/09/24 12:12:06;;;;;;;;;;;;;;;;;;5058783;28;20012;-67
2021/09/24 12:14:33;;;;;;;;;;;;;;;;;;5050563;28;20020;-67
2021/09/24 12:17:00;;;;;;;;;;;;;;;;;;5049972;28;20033;-67
2021/09/24 12:19:28;;;;;;;;;;;;;;;;;;5052851;28;19998;-67
2021/09/24 12:21:56;;;;;;;;;;;;;;;;;;5045377;28;20009;-66
2021/09/24 12:24:25;;;;;;;;;;;;;;;;;;5033921;28;20591;-67
2021/09/24 12:26:52;;;;;;;;;;;;;;;;;;5033625;28;20112;-67
2021/09/24 12:29:19;;;;;;;;;;;;;;;;;;5033891;28;20016;-67
2021/09/24 12:31:46;;;;;;;;;;;;;;;;;;5038222;28;20392;-66
2021/09/24 12:34:13;;;;;;;;;;;;;;;;;;5053452;28;20014;-67
2021/09/24 12:36:40;;;;;;;;;;;;;;;;;;5040005;28;20022;-67
2021/09/24 12:39:07;;;;;;;;;;;;;;;;;;5033246;28;20518;-66
2021/09/24 12:41:34;;;;;;;;;;;;;;;;;;5034513;28;20010;-67
2021/09/24 12:44:01;;;;;;;;;;;;;;;;;;5034156;28;20010;-67
2021/09/24 12:46:28;;;;;;;;;;;;;;;;;;5035031;28;20412;-67
2021/09/24 12:48:55;;;;;;;;;;;;;;;;;;5052147;28;20013;-67
2021/09/24 12:51:22;;;;;;;;;;;;;;;;;;5053426;28;20025;-67
2021/09/24 12:53:49;;;;;;;;;;;;;;;;;;5054369;28;20381;-66
2021/09/24 12:56:16;;;;;;;;;;;;;;;;;;5053579;28;20026;-66
2021/09/24 12:58:43;;;;;;;;;;;;;;;;;;5053441;28;20013;-67
2021/09/24 13:01:10;;;;;;;;;;;;;;;;;;5053685;28;20010;-67
2021/09/24 13:03:40;;;;;;;;;;;;;;;;;;5054455;28;20013;-67
2021/09/24 13:06:07;;;;;;;;;;;;;;;;;;5053102;28;20035;-67
2021/09/24 13:08:34;;;;;;;;;;;;;;;;;;5052288;28;20001;-67
2021/09/24 13:11:01;;;;;;;;;;;;;;;;;;5054334;28;20499;-67
2021/09/24 13:13:28;;;;;;;;;;;;;;;;;;5053265;28;20010;-66
2021/09/24 13:15:55;;;;;;;;;;;;;;;;;;5052789;28;20025;-66
2021/09/24 13:18:22;;;;;;;;;;;;;;;;;;5052759;28;20014;-66
2021/09/24 13:20:50;;;;;;;;;;;;;;;;;;5052590;28;20016;-67
2021/09/24 13:23:17;;;;;;;;;;;;;;;;;;5049613;28;20048;-67
2021/09/24 13:25:44;;;;;;;;;;;;;;;;;;5047706;28;20037;-66
2021/09/24 13:28:11;;;;;;;;;;;;;;;;;;5052583;28;20453;-67
2021/09/24 13:30:43;;;;;;;;;;;;;;;;;;5044294;28;20008;-66
2021/09/24 13:33:10;;;;;;;;;;;;;;;;;;5054350;28;20010;-67
2021/09/24 13:35:37;;;;;;;;;;;;;;;;;;5053039;28;20033;-66
2021/09/24 13:38:04;;;;;;;;;;;;;;;;;;5052375;28;20032;-66
2021/09/24 13:40:32;;;;;;;;;;;;;;;;;;5052308;28;20010;-67
2021/09/24 13:42:59;;;;;;;;;;;;;;;;;;5050580;28;20409;-66
2021/09/24 13:45:26;;;;;;;;;;;;;;;;;;5036464;28;20022;-66
2021/09/24 13:47:53;;;;;;;;;;;;;;;;;;5032227;28;20017;-67
2021/09/24 13:50:19;;;;;;;;;;;;;;;;;;5032284;28;20470;-67
2021/09/24 13:52:46;;;;;;;;;;;;;;;;;;5033390;28;20010;-67
2021/09/24 13:55:13;;;;;;;;;;;;;;;;;;5033571;28;20081;-67
2021/09/24 13:57:40;;;;;;;;;;;;;;;;;;5033384;28;20017;-66
2021/09/24 14:00:07;;;;;;;;;;;;;;;;;;5032750;28;20425;-66
2021/09/24 14:02:34;;;;;;;;;;;;;;;;;;5032018;28;20010;-67
2021/09/24 14:05:01;;;;;;;;;;;;;;;;;;5032184;28;20037;-66
2021/09/24 14:07:28;;;;;;;;;;;;;;;;;;5032144;28;20010;-66
2021/09/24 14:09:55;;;;;;;;;;;;;;;;;;5031949;28;20494;-66
2021/09/24 14:12:22;;;;;;;;;;;;;;;;;;5032390;28;20009;-66
2021/09/24 14:14:49;;;;;;;;;;;;;;;;;;5031853;28;20009;-66
2021/09/24 14:17:15;;;;;;;;;;;;;;;;;;5032743;28;20021;-66
2021/09/24 14:19:42;;;;;;;;;;;;;;;;;;5032402;28;20014;-67
2021/09/24 14:22:09;;;;;;;;;;;;;;;;;;5035392;28;20010;-66
2021/09/24 14:24:38;;;;;;;;;;;;;;;;;;5050261;28;20013;-66
2021/09/24 14:27:05;;;;;;;;;;;;;;;;;;5055569;28;20026;-66
2021/09/24 14:29:32;;;;;;;;;;;;;;;;;;5055769;28;20009;-66
2021/09/24 14:31:59;;;;;;;;;;;;;;;;;;5058784;28;20369;-66
2021/09/24 14:34:26;;;;;;;;;;;;;;;;;;5056129;28;20010;-66
2021/09/24 14:36:53;;;;;;;;;;;;;;;;;;5055330;28;20026;-66
2021/09/24 14:39:20;;;;;;;;;;;;;;;;;;5055854;28;20500;-66
2021/09/24 14:41:47;;;;;;;;;;;;;;;;;;5056020;28;20013;-66
2021/09/24 14:44:14;;;;;;;;;;;;;;;;;;5046501;28;20002;-66
2021/09/24 14:46:40;;;;;;;;;;;;;;;;;;5056403;28;20028;-66
2021/09/24 14:49:07;;;;;;;;;;;;;;;;;;5050015;28;20001;-66
2021/09/24 14:51:34;;;;;;;;;;;;;;;;;;5054956;28;20005;-66
2021/09/24 14:54:01;;;;;;;;;;;;;;;;;;5054061;28;20481;-66
2021/09/24 14:56:28;;;;;;;;;;;;;;;;;;5054632;28;20021;-67
2021/09/24 14:58:55;;;;;;;;;;;;;;;;;;5052472;28;20010;-67
2021/09/24 15:01:22;;;;;;;;;;;;;;;;;;5054533;28;20006;-67
2021/09/24 15:03:49;;;;;;;;;;;;;;;;;;5059595;28;20016;-67
2021/09/24 15:06:16;;;;;;;;;;;;;;;;;;5054433;28;20029;-67
2021/09/24 15:08:43;;;;;;;;;;;;;;;;;;5054351;28;20530;-66
2021/09/24 15:11:10;;;;;;;;;;;;;;;;;;5049668;28;20010;-66
2021/09/24 15:13:37;;;;;;;;;;;;;;;;;;5045654;28;20021;-67
2021/09/24 15:16:04;;;;;;;;;;;;;;;;;;5044160;28;20060;-67
2021/09/24 15:18:30;;;;;;;;;;;;;;;;;;5055087;28;20342;-67
2021/09/24 15:20:57;;;;;;;;;;;;;;;;;;5052829;28;20005;-67
2021/09/24 15:23:24;;;;;;;;;;;;;;;;;;5048861;28;20002;-67
2021/09/24 15:25:51;;;;;;;;;;;;;;;;;;5046856;28;20413;-66
2021/09/24 15:28:18;;;;;;;;;;;;;;;;;;5057911;28;20002;-66
2021/09/24 15:30:47;;;;;;;;;;;;;;;;;;5062354;28;20019;-67
2021/09/24 15:33:14;;;;;;;;;;;;;;;;;;5055741;28;20465;-66
2021/09/24 15:35:40;;;;;;;;;;;;;;;;;;5053786;28;20022;-67
2021/09/24 15:38:07;;;;;;;;;;;;;;;;;;5054966;28;20013;-67
2021/09/24 15:40:36;;;;;;;;;;;;;;;;;;5054428;28;20009;-67
2021/09/24 15:43:05;;;;;;;;;;;;;;;;;;5056094;28;20009;-67
2021/09/24 15:45:32;;;;;;;;;;;;;;;;;;5047233;28;20471;-66
2021/09/24 15:47:59;;;;;;;;;;;;;;;;;;5046888;28;20005;-66
2021/09/24 15:50:25;;;;;;;;;;;;;;;;;;5050934;28;20009;-67
2021/09/24 15:52:52;;;;;;;;;;;;;;;;;;5050575;28;20457;-67
2021/09/24 15:55:19;;;;;;;;;;;;;;;;;;5053510;28;20021;-66
2021/09/24 15:57:46;;;;;;;;;;;;;;;;;;5048427;28;20017;-66
2021/09/24 16:00:13;;;;;;;;;;;;;;;;;;5038842;28;20473;-67
2021/09/24 16:02:40;;;;;;;;;;;;;;;;;;5038517;28;20002;-67
2021/09/24 16:05:07;;;;;;;;;;;;;;;;;;5053116;28;20030;-68
2021/09/24 16:07:34;;;;;;;;;;;;;;;;;;5054099;28;20508;-67
2021/09/24 16:10:01;;;;;;;;;;;;;;;;;;5055173;28;20012;-67
2021/09/24 16:12:28;;;;;;;;;;;;;;;;;;5053565;28;20009;-67
2021/09/24 16:14:55;;;;;;;;;;;;;;;;;;5050957;28;20504;-66
2021/09/24 16:17:22;;;;;;;;;;;;;;;;;;5048144;28;20013;-67
2021/09/24 16:19:48;;;;;;;;;;;;;;;;;;5049636;28;20010;-67
2021/09/24 16:22:15;;;;;;;;;;;;;;;;;;5045615;28;20017;-67
2021/09/24 16:24:42;;;;;;;;;;;;;;;;;;5047989;28;20117;-66
2021/09/24 16:27:09;;;;;;;;;;;;;;;;;;5045691;28;20497;-66
2021/09/24 16:29:36;;;;;;;;;;;;;;;;;;5053505;28;20012;-66
2021/09/24 16:32:03;;;;;;;;;;;;;;;;;;5053256;28;20013;-66
2021/09/24 16:34:30;;;;;;;;;;;;;;;;;;5057088;28;20456;-66
2021/09/24 16:36:57;;;;;;;;;;;;;;;;;;5057871;28;20017;-66
2021/09/24 16:39:24;;;;;;;;;;;;;;;;;;5053850;28;20009;-65
2021/09/24 16:41:51;;;;;;;;;;;;;;;;;;5052555;28;20057;-66
2021/09/24 16:44:18;;;;;;;;;;;;;;;;;;5034623;28;20466;-66